Tuesday, July 17, 2018, 1:37 AM EDT
Back to Local

KPIT, Greater Pittsburgh International

Location: Coraopolis, PA, United States Lat: 40.483
Local Time: 1:37 AM EDT ( 5:37 GMT) Lon: -80.233
Time Zone: US/Eastern Elev: 1204 ft

Show me the last for .
Show Decoded

2018-07-17 00:51 METAR KPIT 170451Z 22005KT 10SM BKN085 BKN150 24/21 A2992 RMK AO2 LTG DSNT E
                 SLP128 T02390206 403170200 =
2018-07-16 23:51 METAR KPIT 170351Z 22005KT 10SM FEW060 BKN090 OVC150 24/21 A2993 RMK AO2 SLP131
                 T02440206 =
2018-07-16 22:51 METAR KPIT 170251Z 21006KT 10SM FEW055 BKN100 BKN220 25/21 A2994 RMK AO2
                 RAB0158E30 SLP135 P0000 60000 T02500211 53010 =
2018-07-16 21:51 METAR KPIT 170151Z 21007KT 10SM SCT055 SCT120 BKN200 26/22 A2990 RMK AO2 LTG
                 DSNT NE TSE24 SLP123 T02560217 =
2018-07-16 21:25 METAR KPIT 170125Z 19007KT 10SM SCT055 BKN200 26/22 A2991 RMK AO2 LTG DSNT E AND
                 NW TSE24 T02610217 =
2018-07-16 20:51 METAR KPIT 170051Z 22006KT 10SM TS FEW028 BKN045CB OVC230 27/22 A2992 RMK AO2
                 LTG DSNT E AND W AND NW TSB26 SLP128 OCNL LTGIC VC E TS VC E MOV NE T02720222 =
2018-07-16 20:26 METAR KPIT 170026Z 21006KT 10SM TS FEW026 SCT042CB BKN230 27/23 A2991 RMK AO2
                 LTG DSNT SE AND W TSB26 OCNL LTGICCG VC SE TS VC SE MOV NE T02720233 =
2018-07-16 19:51 METAR KPIT 162351Z 17003KT 10SM FEW043 FEW150 BKN230 27/23 A2991 RMK AO2 LTG
                 DSNT SE SLP125 CB DSNT SE-S 60000 T02720233 10317 20256 55004 =
2018-07-16 18:51 METAR KPIT 162251Z 22006KT 10SM FEW041 SCT140 BKN230 27/22 A2991 RMK AO2 RAE01
                 SLP124 P0000 T02720222 =
2018-07-16 17:51 METAR KPIT 162151Z 24004KT 10SM -RA FEW038 SCT050 BKN060 BKN140 26/22 A2991 RMK
                 AO2 LTG DSNT NW RAB19 SLP128 P0000 T02560217 =
2018-07-16 15:51 METAR KPIT 161951Z 20007KT 10SM FEW044 FEW070 SCT140 31/19 A2993 RMK AO2 LTG
                 DSNT SW SLP130 T03110194 =
2018-07-16 14:51 METAR KPIT 161851Z 22008KT 10SM SCT042 BKN070 BKN130 30/21 A2995 RMK AO2 SLP140
                 T03000206 =
2018-07-16 13:51 METAR KPIT 161751Z 20007KT 10SM SCT038 BKN130 30/21 A2998 RMK AO2 SLP148
                 T03000206 10300 20211 58012 =
2018-07-16 12:51 METAR KPIT 161651Z 21007KT 10SM SCT035 SCT120 29/21 A3000 RMK AO2 SLP156
                 T02940211 =
2018-07-16 11:51 METAR KPIT 161551Z 17007KT 10SM SCT032 BKN120 29/21 A3001 RMK AO2 SLP159
                 T02890211 =
2018-07-16 10:51 METAR KPIT 161451Z 14005KT 10SM FEW026 SCT130 SCT250 27/22 A3001 RMK AO2 SLP161
                 T02720222 58006 =
2018-07-16 09:51 METAR KPIT 161351Z 16004KT 10SM SCT250 26/22 A3003 RMK AO2 SLP166 T02560217 =
2018-07-16 08:51 METAR KPIT 161251Z 16003KT 10SM SCT250 23/21 A3003 RMK AO2 SLP169 T02330211 =
2018-07-16 07:51 METAR KPIT 161151Z 00000KT 8SM FEW140 SCT250 21/21 A3003 RMK AO2 SLP168 70032
                 T02110206 10217 20200 51009 =
2018-07-16 06:51 METAR KPIT 161051Z 15003KT 9SM SCT140 SCT250 21/20 A3003 RMK AO2 SLP168
                 T02060200 =
2018-07-16 05:51 METAR KPIT 160951Z 00000KT 10SM FEW140 FEW250 21/20 A3002 RMK AO2 SLP162
                 T02060200 =
2018-07-16 04:51 METAR KPIT 160851Z 00000KT 10SM FEW250 21/20 A3001 RMK AO2 SLP157 T02060200
                 58002 =
2018-07-16 03:51 METAR KPIT 160751Z 00000KT 10SM FEW250 21/20 A3001 RMK AO2 SLP159 T02110200 =
2018-07-16 02:51 METAR KPIT 160651Z 12003KT 10SM FEW250 21/20 A3001 RMK AO2 SLP159 T02060200 =
2018-07-16 01:51 METAR KPIT 160551Z 00000KT 10SM SCT250 22/20 A3001 RMK AO2 SLP159 T02170200
                 10239 20211 58004 =

Support USWX by starting your Amazon purchase here.